Time;durP1;ratioP1;P1;durP2;ratioP2;P2;SDS_P1;SDS_P2;PMS_P1;PMS_P2;Temp;Humidity;BMP_temperature;BMP_pressure;BME280_temperature;BME280_humidity;BME280_pressure;Samples;Min_cycle;Max_cycle;Signal;HPM_P1;HPM_P2
2022/06/22 00:03:49;;;;;;;7.03;3.62;;;17.30;99.90;;;;;;6640392;88;20202;-79
2022/06/22 00:13:57;;;;;;;5.50;3.70;;;16.90;99.90;;;;;;6655582;88;20208;-79
2022/06/22 00:24:00;;;;;;;5.85;3.37;;;17.00;99.90;;;;;;6665234;88;20222;-79
2022/06/22 00:34:04;;;;;;;5.25;3.45;;;16.90;99.90;;;;;;6651984;88;20787;-79
2022/06/22 00:44:08;;;;;;;6.78;3.72;;;16.40;99.90;;;;;;6637262;88;20173;-79
2022/06/22 00:54:16;;;;;;;8.32;3.83;;;16.20;99.90;;;;;;6677656;88;20242;-79
2022/06/22 01:04:57;;;;;;;6.35;3.95;;;16.30;99.90;;;;;;6708614;77;20229;-79
2022/06/22 01:15:19;;;;;;;8.45;3.72;;;16.30;99.90;;;;;;6716250;88;20702;-78
2022/06/22 01:36:26;;;;;;;8.27;4.03;;;15.80;99.90;;;;;;6656921;88;20732;-78
2022/06/22 01:47:05;;;;;;;7.10;3.95;;;15.80;99.90;;;;;;6650314;88;20676;-79
2022/06/22 01:57:29;;;;;;;6.32;4.00;;;15.60;99.90;;;;;;6650092;89;20795;-80
2022/06/22 02:07:46;;;;;;;5.22;3.53;;;15.50;99.90;;;;;;6650656;88;20283;-79
2022/06/22 02:17:46;;;;;;;6.32;3.90;;;15.50;99.90;;;;;;6657229;88;20161;-78
2022/06/22 02:27:47;;;;;;;5.30;3.93;;;15.10;99.90;;;;;;6655277;88;20205;-79
2022/06/22 02:38:29;;;;;;;6.75;3.95;;;15.10;99.90;;;;;;6658106;78;20541;-79
2022/06/22 02:48:33;;;;;;;7.37;3.90;;;15.00;99.90;;;;;;6656192;88;20200;-79
2022/06/22 02:58:36;;;;;;;7.75;3.97;;;14.70;99.90;;;;;;6652968;89;20271;-79
2022/06/22 03:08:38;;;;;;;7.95;3.67;;;14.80;99.90;;;;;;6659283;88;20173;-79
2022/06/22 03:18:42;;;;;;;5.62;3.92;;;14.60;99.90;;;;;;6654234;88;20727;-79
2022/06/22 03:28:49;;;;;;;8.48;3.80;;;14.30;99.90;;;;;;6654702;88;20234;-79
2022/06/22 03:38:55;;;;;;;6.68;3.87;;;14.30;99.90;;;;;;6655324;89;20294;-79
2022/06/22 03:49:07;;;;;;;10.48;4.30;;;14.40;99.90;;;;;;6651646;89;20307;-78
2022/06/22 03:59:08;;;;;;;12.35;4.35;;;14.50;99.90;;;;;;6656751;88;20185;-79
2022/06/22 04:09:24;;;;;;;9.55;3.75;;;14.50;99.90;;;;;;6654545;89;20193;-79
2022/06/22 04:19:32;;;;;;;6.65;3.62;;;14.40;99.90;;;;;;6654222;89;20201;-79
2022/06/22 04:29:45;;;;;;;8.45;3.90;;;14.70;99.90;;;;;;6653652;89;20176;-79
2022/06/22 04:39:51;;;;;;;11.48;4.10;;;14.50;99.90;;;;;;6654472;89;20199;-78
2022/06/22 04:50:01;;;;;;;9.68;4.20;;;14.60;99.90;;;;;;6655586;88;20185;-79
2022/06/22 05:00:06;;;;;;;7.75;3.97;;;14.50;99.90;;;;;;6657339;88;20290;-79
2022/06/22 05:10:06;;;;;;;11.70;4.60;;;15.00;99.90;;;;;;6656541;88;20221;-79
2022/06/22 05:20:23;;;;;;;9.73;4.35;;;15.10;99.90;;;;;;6661717;88;20194;-80
2022/06/22 05:30:25;;;;;;;10.13;4.87;;;15.30;99.90;;;;;;6661428;88;20216;-79
2022/06/22 05:40:28;;;;;;;9.13;4.87;;;15.70;99.90;;;;;;6658920;88;20249;-79
2022/06/22 06:11:49;;;;;;;9.38;5.00;;;16.20;99.90;;;;;;6692644;88;20187;-79
2022/06/22 06:21:54;;;;;;;12.85;5.65;;;16.80;99.90;;;;;;6682857;88;20296;-79
2022/06/22 06:32:30;;;;;;;9.52;4.75;;;17.30;99.90;;;;;;6685545;88;20191;-79
2022/06/22 06:42:43;;;;;;;12.48;4.78;;;17.80;99.90;;;;;;6679458;88;22763;-78
2022/06/22 06:53:17;;;;;;;9.20;4.72;;;18.20;99.90;;;;;;6683299;88;20197;-79
2022/06/22 07:03:39;;;;;;;8.93;4.50;;;18.10;99.90;;;;;;6692588;77;20286;-77
2022/06/22 07:13:54;;;;;;;8.57;4.60;;;18.10;99.90;;;;;;6687377;88;20220;-77
2022/06/22 07:24:05;;;;;;;9.25;4.82;;;18.10;99.90;;;;;;6654845;89;20971;-78
2022/06/22 07:34:20;;;;;;;11.20;5.87;;;19.00;99.90;;;;;;6654210;89;20525;-79
2022/06/22 07:44:27;;;;;;;10.02;4.62;;;19.80;99.90;;;;;;6654517;89;20819;-79
2022/06/22 07:54:32;;;;;;;10.15;5.25;;;21.70;99.90;;;;;;6654211;89;20191;-79
2022/06/22 08:04:39;;;;;;;9.77;5.70;;;22.00;99.90;;;;;;6655087;89;20224;-80
2022/06/22 08:14:43;;;;;;;8.10;3.20;;;23.20;99.90;;;;;;6653423;89;20328;-79
2022/06/22 08:24:50;;;;;;;6.05;2.83;;;23.60;99.60;;;;;;6657340;89;20216;-80
2022/06/22 08:34:53;;;;;;;5.68;2.90;;;24.40;96.50;;;;;;6658953;89;20679;-81
2022/06/22 08:44:57;;;;;;;4.65;2.90;;;24.60;96.30;;;;;;6663619;89;20203;-81
2022/06/22 08:55:15;;;;;;;7.25;2.20;;;25.50;93.80;;;;;;6661139;89;20205;-81
2022/06/22 09:05:24;;;;;;;6.07;2.40;;;25.70;88.00;;;;;;6661287;89;20208;-81
2022/06/22 09:15:45;;;;;;;5.87;2.25;;;25.80;91.00;;;;;;6660610;89;20639;-81
2022/06/22 09:25:50;;;;;;;4.82;2.25;;;26.90;88.00;;;;;;6664430;89;20220;-82
2022/06/22 09:36:12;;;;;;;4.18;1.60;;;28.50;83.10;;;;;;6662085;89;20606;-81
2022/06/22 09:46:52;;;;;;;5.97;2.00;;;29.00;78.30;;;;;;6664424;89;20232;-81
2022/06/22 09:57:25;;;;;;;2.90;1.48;;;29.20;75.70;;;;;;6664733;89;20271;-80
2022/06/22 10:07:54;;;;;;;3.70;1.73;;;29.70;75.30;;;;;;6652074;89;20328;-80
2022/06/22 10:18:08;;;;;;;3.58;1.73;;;30.40;74.40;;;;;;6655213;89;20277;-81
2022/06/22 10:28:18;;;;;;;4.25;1.70;;;30.10;73.10;;;;;;6659340;89;20202;-81
2022/06/22 10:38:40;;;;;;;2.58;1.60;;;30.60;70.50;;;;;;6658410;89;20539;-80
2022/06/22 10:48:52;;;;;;;3.20;1.50;;;32.40;69.30;;;;;;6658591;89;20280;-81
2022/06/22 10:59:00;;;;;;;3.87;1.50;;;32.10;68.80;;;;;;6658657;89;20623;-80
2022/06/22 11:09:23;;;;;;;4.05;1.50;;;31.90;65.70;;;;;;6657930;89;20226;-81
2022/06/22 11:19:54;;;;;;;3.72;1.40;;;32.70;62.60;;;;;;6657797;89;20345;-80
2022/06/22 11:41:01;;;;;;;4.18;1.40;;;33.50;61.70;;;;;;6647454;89;20248;-79
2022/06/22 11:51:33;;;;;;;4.28;1.30;;;34.20;60.20;;;;;;6657895;89;20347;-79
2022/06/22 12:02:02;;;;;;;3.03;1.27;;;33.20;60.60;;;;;;6653621;89;20196;-80
2022/06/22 12:12:21;;;;;;;3.92;1.12;;;32.80;62.20;;;;;;6654495;89;20227;-80
2022/06/22 12:22:51;;;;;;;2.17;1.30;;;32.30;59.70;;;;;;6674707;89;20195;-80
2022/06/22 12:33:11;;;;;;;3.08;1.25;;;33.70;59.70;;;;;;6674412;89;20333;-80
2022/06/22 12:43:17;;;;;;;3.58;1.37;;;34.80;58.90;;;;;;6657458;89;20643;-79
2022/06/22 12:53:38;;;;;;;3.37;1.20;;;34.30;57.90;;;;;;6658051;89;20193;-80
2022/06/22 13:04:19;;;;;;;2.67;1.13;;;34.70;58.50;;;;;;6676444;77;21350;-79
2022/06/22 13:14:44;;;;;;;3.03;1.20;;;34.70;57.10;;;;;;6639174;88;20249;-79
2022/06/22 13:25:16;;;;;;;4.03;1.35;;;34.60;57.70;;;;;;6640066;88;20182;-80
2022/06/22 13:35:29;;;;;;;1.55;1.10;;;35.20;57.00;;;;;;6625910;89;20208;-80
2022/06/22 13:45:54;;;;;;;3.00;1.20;;;35.30;56.50;;;;;;6633373;88;20209;-80
2022/06/22 13:56:08;;;;;;;1.67;1.17;;;35.50;54.60;;;;;;6622180;89;20752;-80
2022/06/22 14:06:38;;;;;;;3.47;1.30;;;36.30;53.80;;;;;;6627948;89;20234;-79
2022/06/22 14:16:56;;;;;;;2.43;1.20;;;34.70;54.00;;;;;;6619897;88;20301;-79
2022/06/22 14:27:00;;;;;;;2.08;1.20;;;33.90;55.60;;;;;;6624320;88;20285;-80
2022/06/22 14:37:11;;;;;;;3.05;1.20;;;34.10;56.70;;;;;;6625926;88;20193;-80
2022/06/22 14:47:26;;;;;;;1.80;1.00;;;34.30;55.80;;;;;;6626758;88;20221;-77
2022/06/22 14:57:43;;;;;;;2.33;1.33;;;34.90;53.20;;;;;;6623223;88;20199;-79
2022/06/22 15:07:54;;;;;;;2.60;1.30;;;34.50;55.60;;;;;;6629204;88;20678;-80
2022/06/22 15:18:05;;;;;;;;;;;35.00;54.40;;;;;;6624304;89;20377;-79
2022/06/22 15:28:40;;;;;;;2.10;1.20;;;35.70;52.70;;;;;;6616715;88;20046;-78
2022/06/22 15:38:53;;;;;;;2.87;1.20;;;35.60;52.90;;;;;;6615657;88;20308;-78
2022/06/22 15:49:01;;;;;;;3.12;1.42;;;35.50;53.40;;;;;;6613143;89;20205;-77
2022/06/22 15:59:16;;;;;;;2.72;1.30;;;34.90;52.50;;;;;;6615276;89;20284;-77
2022/06/22 16:09:29;;;;;;;3.65;1.30;;;35.30;54.00;;;;;;6613547;89;21294;-78
2022/06/22 16:19:36;;;;;;;1.95;1.25;;;34.50;54.30;;;;;;6616343;89;20203;-78
2022/06/22 16:29:55;;;;;;;2.50;1.15;;;34.20;52.40;;;;;;6608537;89;20289;-80
2022/06/22 16:39:58;;;;;;;2.40;1.20;;;32.80;54.80;;;;;;6623073;89;20265;-80
2022/06/22 16:50:00;;;;;;;4.20;1.20;;;32.40;54.90;;;;;;6632935;89;20214;-80
2022/06/22 17:00:01;;;;;;;3.25;1.30;;;32.70;54.00;;;;;;6692886;89;20241;-80
2022/06/22 17:10:01;;;;;;;2.27;1.50;;;32.30;56.10;;;;;;6619805;89;20211;-78
2022/06/22 17:20:15;;;;;;;3.87;1.30;;;31.90;55.40;;;;;;6623365;89;20222;-79
2022/06/22 17:30:53;;;;;;;3.03;1.27;;;32.40;55.40;;;;;;6609458;89;20197;-81
2022/06/22 17:41:18;;;;;;;2.83;1.30;;;31.90;54.50;;;;;;6608372;90;20227;-79
2022/06/22 17:51:44;;;;;;;2.92;1.30;;;32.50;55.20;;;;;;6608948;89;20208;-78
2022/06/22 18:01:55;;;;;;;28.77;14.43;;;34.50;53.90;;;;;;6619561;88;20642;-78
2022/06/22 18:12:05;;;;;;;3.37;1.20;;;33.20;54.60;;;;;;6607478;89;20211;-78
2022/06/22 18:22:15;;;;;;;1.70;1.20;;;32.80;54.20;;;;;;6612292;89;20755;-77
2022/06/22 18:32:22;;;;;;;5.60;2.30;;;32.40;54.00;;;;;;6611114;89;20182;-78
2022/06/22 18:43:04;;;;;;;6.00;2.15;;;30.80;57.30;;;;;;6607412;89;20397;-77
2022/06/22 18:53:19;;;;;;;6.68;2.25;;;29.90;62.80;;;;;;6608707;89;20327;-78
2022/06/22 19:03:30;;;;;;;4.62;1.70;;;29.40;65.00;;;;;;6609490;88;21044;-77
2022/06/22 19:13:38;;;;;;;4.30;2.00;;;28.60;67.00;;;;;;6616002;89;20231;-78
2022/06/22 19:24:09;;;;;;;3.78;1.98;;;28.00;67.80;;;;;;6611310;89;20202;-76
2022/06/22 19:34:31;;;;;;;3.08;1.90;;;27.50;68.20;;;;;;6616447;89;20253;-78
2022/06/22 19:44:58;;;;;;;2.20;1.58;;;27.20;68.40;;;;;;6613682;89;20210;-81
2022/06/22 19:55:16;;;;;;;4.00;1.90;;;26.60;69.30;;;;;;6608328;89;20235;-79
2022/06/22 20:05:30;;;;;;;3.50;1.87;;;26.20;70.00;;;;;;6605564;89;21013;-78
2022/06/22 20:15:43;;;;;;;2.87;1.62;;;25.90;71.10;;;;;;6612948;89;20227;-78
2022/06/22 20:26:01;;;;;;;3.35;1.80;;;25.70;71.90;;;;;;6611720;89;20244;-81
2022/06/22 20:36:37;;;;;;;4.10;2.03;;;25.10;72.10;;;;;;6622019;89;20568;-79
2022/06/22 20:46:47;;;;;;;5.40;2.10;;;24.70;74.20;;;;;;6629225;88;20211;-79
2022/06/22 20:57:08;;;;;;;3.15;2.00;;;24.20;75.60;;;;;;6618259;89;20182;-79
2022/06/22 21:07:10;;;;;;;5.25;2.03;;;24.20;76.20;;;;;;6621348;89;20713;-79
2022/06/22 21:17:29;;;;;;;3.53;2.08;;;24.10;77.20;;;;;;6609175;89;20252;-78
2022/06/22 21:27:51;;;;;;;3.85;2.10;;;23.80;77.50;;;;;;6612298;89;20211;-78
2022/06/22 21:38:01;;;;;;;5.22;1.90;;;23.60;80.00;;;;;;6612632;89;20187;-78
2022/06/22 21:48:39;;;;;;;3.67;2.22;;;23.60;81.00;;;;;;6635029;88;20196;-78
2022/06/22 21:58:48;;;;;;;4.20;2.28;;;23.30;82.50;;;;;;6622141;89;20301;-79
2022/06/22 22:08:55;;;;;;;5.00;2.50;;;22.80;86.90;;;;;;6628186;89;20253;-80
2022/06/22 22:19:00;;;;;;;6.37;2.28;;;22.60;91.20;;;;;;6629542;89;20193;-80
2022/06/22 22:29:07;;;;;;;5.93;2.80;;;22.60;96.80;;;;;;6619030;89;20281;-80
2022/06/22 22:39:10;;;;;;;4.80;2.67;;;22.70;99.40;;;;;;6611234;89;20187;-80
2022/06/22 22:49:30;;;;;;;4.57;2.33;;;22.10;99.90;;;;;;6611768;89;20324;-80
2022/06/22 22:59:33;;;;;;;4.30;2.42;;;21.80;99.90;;;;;;6616343;89;20323;-79
2022/06/22 23:09:33;;;;;;;3.33;2.33;;;21.40;99.90;;;;;;6633629;89;20235;-79
2022/06/22 23:19:39;;;;;;;4.75;2.70;;;21.20;99.90;;;;;;6628947;89;20190;-80
2022/06/22 23:29:41;;;;;;;4.10;2.58;;;21.10;99.90;;;;;;6610270;89;20317;-80
2022/06/22 23:39:41;;;;;;;6.10;2.67;;;21.20;99.90;;;;;;6609651;90;20706;-80
2022/06/22 23:49:44;;;;;;;6.12;3.17;;;21.10;99.90;;;;;;6609297;90;20212;-80
2022/06/22 23:59:45;;;;;;;4.22;2.70;;;20.90;99.90;;;;;;6609509;90;20638;-80
